Portada
METAR-TAF:

METAR-TAF

Aeroports :

Agen, França

latitud: 44-11N, longitud: 000-36E, altitud: 61 m

Observació

L'informe es va fer fa 30 minuts, a les 01:00 UTC
Vent 7 kt del Est/Sud-Est
Temperatura 10°C
Humitat 93%
Pressió 1013 hPa
Visibilitat 10 km o més
sense núvols per sota de 1500 mi sense presència de cumulonimbus.

METAR: LFBA 250100Z AUTO 11007KT CAVOK 10/09 Q1013

Hora: 02:30 (01:30 UTC)

Pronòstic

L'informe es va fer fa 11 hores i 30 minuts, a les 14:00 UTC
Pronòstic vàlid del 24 a les 15 UTC al 24 a les 24 UTC
Vent 5 kt del Est
Visibilitat 10 km o més
sense núvols per sota de 1500 mi sense presència de cumulonimbus.
Evolucionant progressivament
l' 24 a les 16 UTC al 24 a les 18 UTC
Vent 10 kt del Sud/Sud-Est

TAF: LFBA 241400Z 2415/2424 10005KT CAVOK BECMG 2416/2418 16010KT

Observacions i pronòstics meteorològics de més de 4000 aeroports (METAR i TAF).

Les estacions disponibles són els punts grocs i vermells al mapa.

Posi el ratolí al punt desitjat per veure el nom de l'estació.

Feu clic per veure les observacions i els pronòstics meteorològics.

Per canviar el mapa: feu clic els botons verds amb una creu de color negre per apropar; al botó verd amb un guió per allunyar la imatge; o en les fletxes verdes per a mapes adjacents.


METAR-TAF: